SBRF/REC METAR and TAF weather

Enter ICAO airport designator
Station Type Date Time Source
SBRF METAR 2020/01/21 18:00 UTC NOAA

SBRF 211800Z 08009KT 9999 SCT025 31/24 Q1008


Station Type Date Time Source
SBRF Decoded METAR 2020/01/21 18:00 UTC NOAA

Recife Aeroporto , Brazil (SBRF) 08-04S 034-51W
Jan 21, 2020 - 01:00 PM EST / 2020.01.21 1800 UTC
Wind: from the E (080 degrees) at 10 MPH (9 KT):0
Visibility: greater than 7 mile(s):0
Sky conditions: partly cloudy
Temperature: 87 F (31 C)
Heat index: 95.7 F (35.4 C):1
Dew Point: 75 F (24 C)
Relative Humidity: 66%
Pressure (altimeter): 29.77 in. Hg (1008 hPa)
ob: SBRF 211800Z 08009KT 9999 SCT025 31/24 Q1008
cycle: 18

Station Type Date Time Source
SBRF TAF 2020/01/21 18:21 UTC NOAA

TAF SBRF 211600Z 2118/2218 13010KT 9999 SCT020 TN26/2205Z TX30/2214Z PROB30
TEMPO 2206/2208 4000 RA BKN015 FEW025TCU
RMK PFM

Example: see airport list